createdAt,value
2023-06-10T00:00:13.454Z,4.70
2023-06-10T00:01:13.486Z,4.70
2023-06-10T00:02:13.400Z,4.60
2023-06-10T00:03:13.555Z,4.40
2023-06-10T00:04:13.470Z,4.80
2023-06-10T00:05:13.343Z,4.40
2023-06-10T00:06:13.386Z,4.80
2023-06-10T00:07:13.316Z,4.80
2023-06-10T00:08:13.199Z,4.90
2023-06-10T00:09:13.318Z,4.70
2023-06-10T00:10:13.350Z,5.20
2023-06-10T00:11:13.349Z,5.00
2023-06-10T00:12:13.155Z,4.80
2023-06-10T00:13:13.236Z,4.80
2023-06-10T00:14:13.238Z,5.00
2023-06-10T00:15:13.365Z,5.10
2023-06-10T00:16:13.261Z,5.10
2023-06-10T00:17:13.274Z,5.20
2023-06-10T00:18:13.214Z,5.30
2023-06-10T00:19:13.184Z,5.00
2023-06-10T00:20:13.664Z,5.50
2023-06-10T00:21:13.219Z,5.50
2023-06-10T00:22:13.268Z,6.10
2023-06-10T00:23:13.028Z,6.60
2023-06-10T00:24:13.587Z,6.60
2023-06-10T00:25:13.125Z,6.30
2023-06-10T00:26:13.113Z,6.50
2023-06-10T00:27:13.120Z,6.60
2023-06-10T00:28:13.169Z,6.90
2023-06-10T00:29:13.151Z,6.50
2023-06-10T00:30:12.971Z,6.40
2023-06-10T00:31:13.134Z,6.60
2023-06-10T00:32:13.078Z,6.30
2023-06-10T00:33:13.137Z,7.10
2023-06-10T00:34:13.117Z,6.20
2023-06-10T00:35:13.328Z,6.50
2023-06-10T00:36:13.002Z,6.80
2023-06-10T00:37:12.981Z,6.60
2023-06-10T00:38:13.075Z,6.00
2023-06-10T00:39:12.982Z,5.90
2023-06-10T00:40:12.959Z,5.70
2023-06-10T00:41:12.965Z,5.20
2023-06-10T00:42:12.969Z,4.70
2023-06-10T00:43:12.939Z,5.60
2023-06-10T00:44:12.934Z,5.10
2023-06-10T00:45:13.170Z,5.00
2023-06-10T00:46:12.925Z,5.00
2023-06-10T00:47:12.906Z,5.50
2023-06-10T00:48:12.946Z,5.60
2023-06-10T00:49:12.859Z,5.40
2023-06-10T00:50:12.937Z,5.10
2023-06-10T00:51:12.860Z,5.40
2023-06-10T00:52:12.833Z,5.50
2023-06-10T00:53:12.812Z,5.80
2023-06-10T00:54:12.806Z,5.80
2023-06-10T00:55:12.868Z,5.90
2023-06-10T00:56:12.889Z,5.90
2023-06-10T00:57:12.803Z,5.10
2023-06-10T00:58:12.812Z,4.90
2023-06-10T00:59:12.763Z,5.00
2023-06-10T01:00:12.771Z,4.80
2023-06-10T01:01:12.679Z,5.00
2023-06-10T01:02:12.829Z,5.30
2023-06-10T01:03:12.843Z,5.00
2023-06-10T01:04:12.708Z,5.20
2023-06-10T01:05:12.884Z,5.60
2023-06-10T01:06:14.678Z,4.70
2023-06-10T01:07:12.771Z,4.90
2023-06-10T01:08:12.662Z,5.10
2023-06-10T01:09:12.669Z,4.90
2023-06-10T01:10:12.643Z,5.30
2023-06-10T01:11:12.720Z,4.90
2023-06-10T01:12:12.729Z,5.40
2023-06-10T01:13:12.611Z,5.40
2023-06-10T01:14:12.606Z,5.10
2023-06-10T01:15:12.607Z,5.70
2023-06-10T01:16:12.611Z,5.20
2023-06-10T01:17:12.802Z,5.10
2023-06-10T01:18:12.707Z,5.40
2023-06-10T01:19:12.574Z,5.30
2023-06-10T01:20:12.440Z,5.50
2023-06-10T01:21:12.550Z,5.40
2023-06-10T01:22:12.572Z,5.40
2023-06-10T01:23:12.616Z,5.10
2023-06-10T01:24:12.558Z,5.60
2023-06-10T01:25:12.522Z,5.30
2023-06-10T01:26:12.503Z,5.20
2023-06-10T01:27:12.498Z,5.50
2023-06-10T01:28:12.580Z,6.20
2023-06-10T01:29:12.474Z,6.00
2023-06-10T01:30:12.474Z,6.20
2023-06-10T01:31:12.527Z,6.00
2023-06-10T01:32:12.437Z,6.00
2023-06-10T01:33:12.433Z,5.70
2023-06-10T01:34:12.474Z,5.80
2023-06-10T01:35:12.524Z,5.90
2023-06-10T01:36:12.374Z,5.80
2023-06-10T01:37:12.367Z,5.90
2023-06-10T01:38:12.376Z,6.00
2023-06-10T01:39:12.455Z,5.90
2023-06-10T01:40:12.223Z,5.90
2023-06-10T01:41:12.321Z,5.70
2023-06-10T01:42:12.333Z,5.90
2023-06-10T01:43:12.330Z,5.70
2023-06-10T01:44:12.380Z,5.70
2023-06-10T01:45:12.315Z,5.90
2023-06-10T01:46:12.360Z,6.10
2023-06-10T01:47:12.304Z,6.10
2023-06-10T01:48:12.415Z,5.90
2023-06-10T01:49:12.357Z,5.50
2023-06-10T01:50:12.309Z,5.80
2023-06-10T01:51:12.268Z,6.20
2023-06-10T01:52:12.171Z,6.00
2023-06-10T01:53:12.235Z,5.90
2023-06-10T01:54:12.227Z,5.50
2023-06-10T01:55:12.347Z,6.00
2023-06-10T01:56:12.183Z,5.90
2023-06-10T01:57:12.197Z,5.80
2023-06-10T01:58:12.163Z,5.80
2023-06-10T01:59:12.160Z,5.80
2023-06-10T02:00:12.070Z,5.60
2023-06-10T02:01:12.093Z,6.10
2023-06-10T02:02:12.144Z,6.30
2023-06-10T02:03:12.294Z,5.80
2023-06-10T02:04:12.037Z,5.80
2023-06-10T02:05:12.285Z,6.10
2023-06-10T02:06:12.094Z,5.80
2023-06-10T02:07:12.200Z,6.10
2023-06-10T02:08:11.942Z,6.20
2023-06-10T02:09:12.072Z,5.90
2023-06-10T02:10:12.047Z,6.10
2023-06-10T02:11:12.029Z,5.90
2023-06-10T02:12:12.039Z,5.20
2023-06-10T02:13:12.000Z,6.10
2023-06-10T02:14:11.890Z,5.90
2023-06-10T02:15:12.179Z,5.90
2023-06-10T02:16:11.992Z,5.90
2023-06-10T02:17:12.050Z,5.80
2023-06-10T02:18:11.977Z,5.60
2023-06-10T02:19:11.952Z,5.50
2023-06-10T02:20:11.978Z,5.90
2023-06-10T02:21:12.012Z,5.30
2023-06-10T02:22:11.998Z,5.50
2023-06-10T02:23:11.867Z,5.40
2023-06-10T02:24:11.915Z,5.80
2023-06-10T02:25:12.110Z,5.80
2023-06-10T02:26:11.887Z,5.80
2023-06-10T02:27:11.911Z,6.30
2023-06-10T02:28:11.827Z,5.50
2023-06-10T02:29:11.787Z,6.10
2023-06-10T02:30:11.817Z,5.60
2023-06-10T02:31:11.768Z,5.60
2023-06-10T02:32:11.917Z,5.20
2023-06-10T02:33:11.860Z,5.40
2023-06-10T02:34:11.699Z,5.10
2023-06-10T02:35:11.857Z,5.50
2023-06-10T02:36:11.707Z,5.60
2023-06-10T02:37:11.706Z,5.30
2023-06-10T02:38:11.822Z,5.30
2023-06-10T02:39:11.700Z,5.50
2023-06-10T02:40:11.762Z,5.80
2023-06-10T02:41:11.706Z,5.70
2023-06-10T02:42:11.722Z,6.00
2023-06-10T02:43:11.724Z,5.50
2023-06-10T02:44:11.655Z,5.90
2023-06-10T02:45:11.837Z,5.80
2023-06-10T02:46:11.647Z,5.90
2023-06-10T02:47:11.706Z,6.00
2023-06-10T02:48:11.774Z,5.90
2023-06-10T02:49:11.624Z,5.90
2023-06-10T02:50:11.586Z,5.80
2023-06-10T02:51:11.456Z,5.70
2023-06-10T02:52:11.548Z,5.60
2023-06-10T02:53:11.619Z,6.30
2023-06-10T02:54:11.430Z,5.70
2023-06-10T02:55:11.765Z,5.80
2023-06-10T02:56:11.534Z,5.80
2023-06-10T02:57:11.523Z,5.60
2023-06-10T02:58:11.580Z,5.90
2023-06-10T02:59:11.489Z,5.50
2023-06-10T03:00:11.396Z,5.60
2023-06-10T03:01:11.527Z,5.70
2023-06-10T03:02:11.480Z,5.80
2023-06-10T03:03:11.553Z,5.40
2023-06-10T03:04:11.523Z,5.60
2023-06-10T03:05:12.027Z,6.00
2023-06-10T03:06:11.420Z,6.10
2023-06-10T03:07:11.397Z,6.00
2023-06-10T03:08:11.404Z,5.90
2023-06-10T03:09:11.501Z,5.70
2023-06-10T03:10:11.449Z,5.90
2023-06-10T03:11:11.398Z,6.20
2023-06-10T03:12:11.383Z,6.00
2023-06-10T03:13:11.377Z,6.60
2023-06-10T03:14:11.376Z,6.70
2023-06-10T03:15:11.696Z,6.40
2023-06-10T03:16:11.318Z,6.30
2023-06-10T03:17:11.323Z,6.10
2023-06-10T03:18:11.308Z,6.20
2023-06-10T03:19:11.341Z,6.60
2023-06-10T03:20:11.404Z,6.00
2023-06-10T03:21:11.284Z,5.90
2023-06-10T03:22:11.327Z,6.20
2023-06-10T03:23:11.270Z,5.80
2023-06-10T03:24:11.364Z,5.80
2023-06-10T03:25:11.529Z,6.00
2023-06-10T03:26:11.283Z,5.80
2023-06-10T03:27:11.202Z,5.80
2023-06-10T03:28:11.104Z,5.30
2023-06-10T03:29:11.186Z,5.70
2023-06-10T03:30:11.323Z,5.40
2023-06-10T03:31:11.235Z,5.60
2023-06-10T03:32:11.166Z,5.70
2023-06-10T03:33:11.162Z,5.60
2023-06-10T03:34:11.160Z,5.50
2023-06-10T03:35:11.469Z,5.10
2023-06-10T03:36:11.211Z,5.30
2023-06-10T03:37:11.162Z,5.40
2023-06-10T03:38:11.080Z,5.10
2023-06-10T03:39:11.101Z,5.00
2023-06-10T03:40:11.099Z,5.20
2023-06-10T03:41:11.169Z,5.10
2023-06-10T03:42:11.122Z,5.10
2023-06-10T03:43:10.938Z,4.90
2023-06-10T03:44:11.043Z,4.90
2023-06-10T03:45:11.235Z,4.80
2023-06-10T03:46:10.987Z,4.80
2023-06-10T03:47:10.948Z,4.50
2023-06-10T03:48:11.119Z,4.80
2023-06-10T03:49:10.986Z,4.50
2023-06-10T03:50:10.997Z,4.80
2023-06-10T03:51:10.849Z,5.10
2023-06-10T03:52:11.012Z,4.80
2023-06-10T03:53:10.832Z,5.30
2023-06-10T03:54:10.875Z,4.90
2023-06-10T03:55:11.184Z,4.90
2023-06-10T03:56:10.848Z,4.80
2023-06-10T03:57:10.903Z,4.90
2023-06-10T03:58:10.952Z,5.00
2023-06-10T03:59:10.887Z,5.20
2023-06-10T04:00:10.890Z,5.20
2023-06-10T04:01:10.880Z,4.80
2023-06-10T04:02:10.872Z,5.00
2023-06-10T04:03:10.884Z,5.00
2023-06-10T04:04:10.904Z,4.90
2023-06-10T04:05:11.015Z,5.10
2023-06-10T04:06:10.943Z,5.70
2023-06-10T04:07:10.819Z,5.20
2023-06-10T04:08:10.774Z,5.30
2023-06-10T04:09:10.886Z,5.40
2023-06-10T04:10:10.766Z,5.50
2023-06-10T04:11:10.763Z,5.30
2023-06-10T04:12:10.735Z,5.60
2023-06-10T04:13:10.730Z,5.00
2023-06-10T04:14:10.818Z,5.40
2023-06-10T04:15:10.965Z,5.10
2023-06-10T04:16:10.629Z,5.10
2023-06-10T04:17:10.747Z,4.60
2023-06-10T04:18:10.725Z,5.20
2023-06-10T04:19:10.808Z,4.90
2023-06-10T04:20:10.701Z,5.20
2023-06-10T04:21:10.661Z,4.90
2023-06-10T04:22:10.648Z,5.10
2023-06-10T04:23:10.568Z,5.10
2023-06-10T04:24:10.747Z,4.60
2023-06-10T04:25:10.938Z,5.00
2023-06-10T04:26:10.495Z,5.10
2023-06-10T04:27:10.549Z,5.10
2023-06-10T04:28:10.606Z,4.50
2023-06-10T04:29:10.576Z,4.60
2023-06-10T04:30:10.584Z,5.00
2023-06-10T04:31:10.701Z,4.60
2023-06-10T04:32:10.558Z,4.90
2023-06-10T04:33:10.662Z,4.60
2023-06-10T04:34:10.606Z,4.80
2023-06-10T04:35:10.762Z,4.90
2023-06-10T04:36:10.498Z,4.90
2023-06-10T04:37:10.584Z,4.80
2023-06-10T04:38:10.487Z,4.80
2023-06-10T04:39:10.503Z,4.90
2023-06-10T04:40:10.385Z,4.80
2023-06-10T04:41:10.334Z,4.90
2023-06-10T04:42:10.521Z,4.60
2023-06-10T04:43:10.435Z,4.40
2023-06-10T04:44:10.299Z,4.50
2023-06-10T04:45:10.587Z,4.50
2023-06-10T04:46:10.409Z,4.30
2023-06-10T04:47:10.411Z,4.60
2023-06-10T04:48:10.503Z,4.50
2023-06-10T04:49:10.365Z,4.50
2023-06-10T04:50:10.377Z,4.30
2023-06-10T04:51:10.440Z,4.50
2023-06-10T04:52:10.365Z,4.70
2023-06-10T04:53:10.324Z,4.60
2023-06-10T04:54:10.319Z,4.40
2023-06-10T04:55:10.547Z,4.70
2023-06-10T04:56:10.347Z,4.40
2023-06-10T04:57:10.217Z,4.60
2023-06-10T04:58:10.265Z,4.70
2023-06-10T04:59:10.180Z,4.30
2023-06-10T05:00:10.156Z,3.90
2023-06-10T05:01:10.338Z,4.50
2023-06-10T05:02:10.367Z,4.20
2023-06-10T05:03:10.366Z,4.30
2023-06-10T05:04:10.502Z,4.30
2023-06-10T05:05:10.271Z,4.30
2023-06-10T05:06:10.213Z,4.30
2023-06-10T05:07:10.273Z,4.30
2023-06-10T05:08:10.056Z,4.10
2023-06-10T05:09:10.243Z,3.90
2023-06-10T05:10:10.177Z,4.10
2023-06-10T05:11:10.143Z,4.10
2023-06-10T05:12:10.267Z,4.30
2023-06-10T05:13:10.130Z,4.50
2023-06-10T05:14:10.183Z,3.90
2023-06-10T05:15:10.464Z,4.20
2023-06-10T05:16:10.105Z,4.10
2023-06-10T05:17:10.078Z,4.30
2023-06-10T05:18:10.031Z,4.00
2023-06-10T05:19:10.090Z,4.00
2023-06-10T05:20:10.187Z,4.20
2023-06-10T05:21:10.038Z,3.90
2023-06-10T05:22:10.047Z,4.10
2023-06-10T05:23:10.014Z,3.90
2023-06-10T05:24:09.984Z,4.20
2023-06-10T05:25:10.311Z,3.80
2023-06-10T05:26:09.903Z,4.10
2023-06-10T05:27:09.899Z,4.40
2023-06-10T05:28:10.514Z,4.10
2023-06-10T05:29:09.842Z,4.20
2023-06-10T05:30:09.873Z,4.00
2023-06-10T05:31:09.933Z,3.80
2023-06-10T05:32:10.156Z,4.40
2023-06-10T05:33:09.936Z,3.80
2023-06-10T05:34:09.877Z,4.20
2023-06-10T05:35:10.186Z,4.30
2023-06-10T05:36:09.859Z,4.20
2023-06-10T05:37:09.790Z,4.40
2023-06-10T05:38:09.788Z,4.10
2023-06-10T05:39:09.816Z,3.70
2023-06-10T05:40:09.758Z,3.80
2023-06-10T05:41:09.944Z,3.90
2023-06-10T05:42:09.802Z,3.90
2023-06-10T05:43:09.765Z,3.90
2023-06-10T05:44:11.331Z,3.80
2023-06-10T05:45:10.041Z,3.90
2023-06-10T05:46:09.712Z,3.90
2023-06-10T05:47:09.735Z,3.90
2023-06-10T05:48:09.740Z,3.90
2023-06-10T05:49:09.685Z,3.80
2023-06-10T05:50:09.814Z,3.70
2023-06-10T05:51:09.780Z,3.60
2023-06-10T05:52:09.775Z,3.80
2023-06-10T05:53:09.854Z,3.70
2023-06-10T05:54:09.755Z,3.70
2023-06-10T05:55:10.187Z,3.80
2023-06-10T05:56:09.779Z,4.00
2023-06-10T05:57:09.810Z,4.10
2023-06-10T05:58:09.703Z,4.40
2023-06-10T05:59:09.762Z,4.00
2023-06-10T06:00:09.616Z,4.00
2023-06-10T06:01:09.750Z,3.90
2023-06-10T06:02:09.700Z,3.70
2023-06-10T06:03:09.923Z,3.80
2023-06-10T06:04:09.759Z,4.10
2023-06-10T06:05:10.244Z,3.30
2023-06-10T06:06:09.626Z,4.00
2023-06-10T06:07:09.518Z,3.80
2023-06-10T06:08:09.668Z,3.50
2023-06-10T06:09:09.646Z,3.90
2023-06-10T06:10:09.623Z,3.70
2023-06-10T06:11:09.584Z,3.80
2023-06-10T06:12:09.466Z,3.40
2023-06-10T06:13:09.650Z,3.70
2023-06-10T06:14:09.547Z,3.60
2023-06-10T06:15:09.850Z,3.70
2023-06-10T06:16:09.492Z,3.80
2023-06-10T06:17:09.527Z,3.90
2023-06-10T06:18:09.648Z,3.70
2023-06-10T06:19:09.503Z,3.90
2023-06-10T06:20:09.491Z,4.10
2023-06-10T06:21:09.568Z,3.60
2023-06-10T06:22:09.461Z,3.60
2023-06-10T06:23:09.353Z,3.80
2023-06-10T06:24:09.635Z,3.60
2023-06-10T06:25:09.890Z,3.50
2023-06-10T06:26:09.450Z,3.70
2023-06-10T06:27:09.438Z,3.80
2023-06-10T06:28:09.341Z,3.80
2023-06-10T06:29:09.485Z,3.60
2023-06-10T06:30:09.399Z,3.90
2023-06-10T06:31:09.455Z,3.70
2023-06-10T06:32:09.400Z,3.60
2023-06-10T06:33:09.403Z,3.50
2023-06-10T06:34:09.306Z,3.70
2023-06-10T06:35:09.899Z,4.00
2023-06-10T06:36:09.377Z,4.00
2023-06-10T06:37:09.383Z,3.40
2023-06-10T06:38:09.334Z,3.70
2023-06-10T06:39:09.526Z,3.80
2023-06-10T06:40:09.340Z,3.80
2023-06-10T06:41:09.383Z,3.70
2023-06-10T06:42:09.313Z,3.60
2023-06-10T06:43:09.363Z,3.80
2023-06-10T06:44:09.270Z,3.80
2023-06-10T06:45:09.465Z,3.60
2023-06-10T06:46:09.257Z,3.70
2023-06-10T06:47:09.266Z,3.50
2023-06-10T06:48:09.356Z,3.50
2023-06-10T06:49:09.172Z,3.30
2023-06-10T06:50:09.226Z,3.70
2023-06-10T06:51:09.146Z,3.50
2023-06-10T06:52:09.100Z,3.70
2023-06-10T06:53:09.193Z,3.60
2023-06-10T06:54:09.215Z,3.90
2023-06-10T06:55:09.422Z,3.80
2023-06-10T06:56:09.187Z,3.60
2023-06-10T06:57:09.146Z,3.90
2023-06-10T06:58:09.228Z,3.60
2023-06-10T06:59:09.137Z,3.70
2023-06-10T07:00:09.054Z,3.70
2023-06-10T07:01:09.105Z,3.80
2023-06-10T07:02:09.253Z,3.90
2023-06-10T07:03:09.261Z,3.40
2023-06-10T07:04:09.109Z,3.70
2023-06-10T07:05:09.348Z,3.80
2023-06-10T07:06:09.069Z,3.80
2023-06-10T07:07:09.085Z,3.70
2023-06-10T07:08:09.134Z,3.70
2023-06-10T07:09:09.063Z,3.70
2023-06-10T07:10:09.082Z,3.80
2023-06-10T07:11:09.044Z,3.60
2023-06-10T07:12:09.044Z,3.70
2023-06-10T07:13:09.104Z,3.60
2023-06-10T07:14:09.076Z,3.70
2023-06-10T07:15:09.293Z,3.50
2023-06-10T07:16:08.905Z,3.90
2023-06-10T07:17:09.019Z,4.00
2023-06-10T07:18:09.120Z,3.70
2023-06-10T07:19:08.977Z,3.60
2023-06-10T07:20:08.986Z,3.60
2023-06-10T07:21:08.853Z,3.60
2023-06-10T07:22:08.900Z,3.60
2023-06-10T07:23:09.037Z,3.90
2023-06-10T07:24:08.975Z,3.70
2023-06-10T07:25:09.307Z,3.80
2023-06-10T07:26:08.898Z,3.80
2023-06-10T07:27:08.774Z,3.70
2023-06-10T07:28:08.980Z,3.70
2023-06-10T07:29:08.955Z,3.90
2023-06-10T07:30:08.816Z,4.00
2023-06-10T07:31:08.908Z,4.20
2023-06-10T07:32:08.782Z,4.20
2023-06-10T07:33:09.079Z,4.20
2023-06-10T07:34:08.845Z,3.80
2023-06-10T07:35:09.066Z,4.20
2023-06-10T07:36:08.816Z,3.90
2023-06-10T07:37:08.797Z,3.80
2023-06-10T07:38:08.807Z,3.60
2023-06-10T07:39:08.881Z,3.90
2023-06-10T07:40:08.769Z,3.50
2023-06-10T07:41:08.777Z,4.00
2023-06-10T07:42:08.771Z,4.00
2023-06-10T07:43:08.754Z,3.80
2023-06-10T07:44:08.737Z,3.90
2023-06-10T07:45:09.139Z,3.80
2023-06-10T07:46:08.785Z,3.80
2023-06-10T07:47:08.735Z,3.90
2023-06-10T07:48:08.751Z,3.60
2023-06-10T07:49:08.706Z,3.70
2023-06-10T07:50:08.786Z,3.60
2023-06-10T07:51:08.744Z,3.90
2023-06-10T07:52:08.676Z,3.80
2023-06-10T07:53:08.689Z,4.20
2023-06-10T07:54:08.690Z,3.70
2023-06-10T07:55:09.053Z,3.70
2023-06-10T07:56:08.716Z,3.60
2023-06-10T07:57:08.581Z,3.50
2023-06-10T07:58:08.646Z,3.60
2023-06-10T07:59:08.602Z,3.40
2023-06-10T08:00:08.621Z,3.60
2023-06-10T08:01:08.611Z,3.80
2023-06-10T08:02:08.673Z,3.40
2023-06-10T08:03:08.641Z,3.60
2023-06-10T08:04:08.731Z,3.50
2023-06-10T08:05:09.089Z,3.20
2023-06-10T08:06:08.640Z,3.40
2023-06-10T08:07:08.566Z,3.50
2023-06-10T08:08:08.561Z,3.50
2023-06-10T08:09:08.540Z,3.40
2023-06-10T08:10:08.533Z,3.40
2023-06-10T08:11:08.507Z,3.50
2023-06-10T08:12:08.580Z,3.40
2023-06-10T08:13:08.494Z,3.50
2023-06-10T08:14:08.495Z,3.50
2023-06-10T08:15:08.845Z,3.40
2023-06-10T08:16:08.603Z,3.50
2023-06-10T08:17:08.524Z,3.30
2023-06-10T08:18:08.471Z,3.50
2023-06-10T08:19:08.430Z,3.20
2023-06-10T08:20:08.445Z,3.50
2023-06-10T08:21:08.378Z,3.50
2023-06-10T08:22:08.416Z,3.50
2023-06-10T08:23:08.464Z,3.40
2023-06-10T08:24:08.513Z,3.40
2023-06-10T08:25:08.663Z,3.20
2023-06-10T08:26:08.357Z,3.30
2023-06-10T08:27:08.364Z,3.50
2023-06-10T08:28:08.408Z,3.50
2023-06-10T08:29:08.354Z,3.70
2023-06-10T08:30:08.317Z,3.50
2023-06-10T08:31:08.317Z,3.60
2023-06-10T08:32:08.377Z,3.60
2023-06-10T08:33:08.342Z,3.50
2023-06-10T08:34:08.375Z,3.30
2023-06-10T08:35:08.664Z,3.30
2023-06-10T08:36:08.254Z,3.80
2023-06-10T08:37:08.160Z,3.50
2023-06-10T08:38:08.150Z,3.50
2023-06-10T08:39:08.161Z,3.50
2023-06-10T08:40:08.129Z,3.80
2023-06-10T08:41:08.302Z,3.50
2023-06-10T08:42:08.137Z,3.50
2023-06-10T08:43:08.102Z,3.10
2023-06-10T08:44:08.126Z,3.60
2023-06-10T08:45:08.306Z,3.40
2023-06-10T08:46:08.148Z,3.50
2023-06-10T08:47:08.067Z,3.40
2023-06-10T08:48:08.284Z,4.00
2023-06-10T08:49:08.143Z,3.20
2023-06-10T08:50:10.808Z,3.40
2023-06-10T08:51:08.103Z,3.30
2023-06-10T08:52:07.977Z,3.30
2023-06-10T08:53:08.018Z,3.50
2023-06-10T08:54:07.978Z,3.00
2023-06-10T08:55:08.436Z,3.30
2023-06-10T08:56:08.011Z,3.20
2023-06-10T08:57:08.047Z,3.60
2023-06-10T08:58:07.959Z,3.20
2023-06-10T08:59:07.947Z,3.50
2023-06-10T09:00:08.435Z,3.20
2023-06-10T09:01:08.053Z,3.20
2023-06-10T09:02:08.089Z,3.60
2023-06-10T09:03:08.099Z,3.60
2023-06-10T09:04:07.895Z,3.50
2023-06-10T09:05:07.923Z,5.30
2023-06-10T09:06:07.918Z,4.20
2023-06-10T09:07:07.844Z,3.80
2023-06-10T09:08:07.971Z,3.70
2023-06-10T09:09:07.967Z,3.30
2023-06-10T09:10:08.783Z,3.50
2023-06-10T09:11:07.865Z,3.30
2023-06-10T09:12:07.805Z,3.40
2023-06-10T09:13:07.876Z,3.50
2023-06-10T09:14:07.879Z,3.50
2023-06-10T09:15:07.957Z,3.50
2023-06-10T09:16:07.921Z,3.50
2023-06-10T09:17:07.867Z,3.40
2023-06-10T09:18:07.908Z,3.50
2023-06-10T09:19:07.733Z,3.70
2023-06-10T09:20:10.359Z,3.50
2023-06-10T09:21:07.830Z,3.40
2023-06-10T09:22:07.837Z,3.90
2023-06-10T09:23:07.739Z,3.50
2023-06-10T09:24:07.886Z,3.60
2023-06-10T09:25:07.692Z,3.60
2023-06-10T09:26:10.426Z,3.80
2023-06-10T09:27:07.759Z,3.40
2023-06-10T09:28:07.651Z,3.70
2023-06-10T09:29:07.754Z,3.60
2023-06-10T09:30:07.987Z,3.50
2023-06-10T09:31:07.866Z,3.80
2023-06-10T09:32:10.381Z,3.80
2023-06-10T09:33:07.848Z,3.60
2023-06-10T09:34:07.708Z,3.50
2023-06-10T09:35:07.591Z,3.40
2023-06-10T09:36:07.696Z,3.40
2023-06-10T09:37:07.749Z,3.80
2023-06-10T09:38:10.559Z,3.90
2023-06-10T09:39:07.674Z,3.80
2023-06-10T09:40:07.935Z,3.40
2023-06-10T09:41:07.658Z,3.60
2023-06-10T09:42:07.699Z,3.80
2023-06-10T09:43:07.673Z,3.90
2023-06-10T09:44:10.074Z,6.20
2023-06-10T09:45:07.610Z,3.60
2023-06-10T09:46:07.628Z,3.70
2023-06-10T09:47:07.574Z,3.70
2023-06-10T09:48:07.743Z,3.70
2023-06-10T09:49:07.569Z,3.40
2023-06-10T09:50:10.953Z,3.70
2023-06-10T09:51:07.614Z,3.60
2023-06-10T09:52:07.584Z,3.70
2023-06-10T09:53:07.535Z,3.40
2023-06-10T09:54:07.523Z,3.50
2023-06-10T09:55:07.529Z,3.30
2023-06-10T09:56:10.455Z,3.80
2023-06-10T09:57:07.535Z,3.50
2023-06-10T09:58:07.488Z,3.20
2023-06-10T09:59:07.524Z,3.60
2023-06-10T10:00:07.822Z,3.50
2023-06-10T10:01:07.530Z,3.20
2023-06-10T10:02:09.024Z,3.40
2023-06-10T10:03:07.504Z,2.90
2023-06-10T10:04:07.372Z,3.20
2023-06-10T10:05:07.741Z,3.00
2023-06-10T10:06:07.411Z,2.90
2023-06-10T10:07:07.416Z,3.10
2023-06-10T10:08:07.444Z,2.80
2023-06-10T10:09:07.479Z,3.00
2023-06-10T10:10:07.289Z,2.90
2023-06-10T10:11:07.378Z,3.10
2023-06-10T10:12:07.373Z,3.00
2023-06-10T10:13:07.384Z,3.00
2023-06-10T10:14:09.889Z,3.10
2023-06-10T10:15:07.636Z,2.90
2023-06-10T10:16:07.402Z,2.80
2023-06-10T10:17:07.565Z,2.80
2023-06-10T10:18:07.457Z,2.80
2023-06-10T10:19:07.310Z,2.90
2023-06-10T10:20:07.273Z,2.90
2023-06-10T10:21:07.405Z,3.20
2023-06-10T10:22:07.248Z,2.80
2023-06-10T10:23:07.191Z,2.80
2023-06-10T10:24:07.223Z,2.90
2023-06-10T10:25:07.443Z,2.80
2023-06-10T10:26:10.386Z,2.90
2023-06-10T10:27:07.397Z,3.20
2023-06-10T10:28:07.262Z,2.80
2023-06-10T10:29:07.139Z,2.80
2023-06-10T10:30:07.235Z,3.10
2023-06-10T10:31:07.275Z,3.00
2023-06-10T10:32:07.398Z,3.20
2023-06-10T10:33:09.518Z,2.70
2023-06-10T10:34:07.373Z,2.90
2023-06-10T10:35:07.600Z,3.10
2023-06-10T10:36:07.201Z,2.90
2023-06-10T10:37:07.404Z,3.00
2023-06-10T10:38:07.087Z,2.90
2023-06-10T10:39:07.051Z,3.10
2023-06-10T10:40:07.134Z,3.00
2023-06-10T10:41:07.138Z,3.20
2023-06-10T10:42:07.228Z,3.00
2023-06-10T10:43:07.038Z,3.10
2023-06-10T10:44:07.072Z,3.10
2023-06-10T10:45:09.168Z,3.10
2023-06-10T10:46:07.203Z,3.20
2023-06-10T10:47:07.054Z,3.10
2023-06-10T10:48:07.067Z,3.20
2023-06-10T10:49:06.949Z,3.10
2023-06-10T10:50:07.165Z,3.10
2023-06-10T10:51:06.930Z,2.90
2023-06-10T10:52:07.052Z,3.00
2023-06-10T10:53:07.099Z,3.00
2023-06-10T10:54:06.998Z,3.50
2023-06-10T10:55:07.307Z,3.30
2023-06-10T10:56:07.076Z,3.20
2023-06-10T10:57:06.879Z,3.10
2023-06-10T10:58:06.948Z,3.30
2023-06-10T10:59:06.900Z,3.20
2023-06-10T11:00:07.311Z,3.10
2023-06-10T11:01:07.029Z,2.90
2023-06-10T11:02:07.048Z,3.20
2023-06-10T11:03:10.135Z,3.40
2023-06-10T11:04:06.985Z,3.40
2023-06-10T11:05:06.952Z,3.50
2023-06-10T11:06:06.785Z,3.20
2023-06-10T11:07:06.895Z,3.60
2023-06-10T11:08:06.835Z,3.40
2023-06-10T11:09:06.835Z,3.60
2023-06-10T11:10:06.754Z,3.70
2023-06-10T11:11:06.798Z,3.40
2023-06-10T11:12:06.844Z,3.40
2023-06-10T11:13:06.837Z,3.60
2023-06-10T11:14:06.881Z,3.70
2023-06-10T11:15:07.119Z,3.70
2023-06-10T11:16:06.837Z,3.70
2023-06-10T11:17:06.791Z,3.80
2023-06-10T11:18:06.853Z,4.00
2023-06-10T11:19:06.855Z,4.10
2023-06-10T11:20:06.755Z,3.90
2023-06-10T11:21:06.802Z,3.90
2023-06-10T11:22:06.606Z,3.70
2023-06-10T11:23:06.694Z,4.30
2023-06-10T11:24:06.658Z,4.30
2023-06-10T11:25:06.636Z,4.10
2023-06-10T11:26:06.574Z,4.20
2023-06-10T11:27:06.637Z,4.00
2023-06-10T11:28:06.626Z,4.40
2023-06-10T11:29:06.654Z,4.30
2023-06-10T11:30:06.598Z,4.30
2023-06-10T11:31:06.622Z,4.00
2023-06-10T11:32:06.846Z,4.20
2023-06-10T11:33:06.736Z,4.00
2023-06-10T11:34:06.622Z,4.00
2023-06-10T11:35:06.564Z,4.20
2023-06-10T11:36:06.597Z,4.10
2023-06-10T11:37:06.491Z,3.90
2023-06-10T11:38:06.607Z,4.10
2023-06-10T11:39:06.462Z,4.10
2023-06-10T11:40:06.561Z,4.20
2023-06-10T11:41:06.574Z,4.00
2023-06-10T11:42:06.601Z,4.20
2023-06-10T11:43:06.440Z,4.00
2023-06-10T11:44:06.366Z,3.80
2023-06-10T11:45:06.416Z,4.00
2023-06-10T11:46:06.406Z,4.20
2023-06-10T11:47:06.360Z,4.30
2023-06-10T11:48:06.493Z,4.10
2023-06-10T11:49:06.514Z,4.30
2023-06-10T11:50:06.499Z,4.10
2023-06-10T11:51:06.446Z,4.00
2023-06-10T11:52:06.348Z,4.20
2023-06-10T11:53:06.425Z,4.00
2023-06-10T11:54:06.388Z,4.30
2023-06-10T11:55:07.968Z,4.30
2023-06-10T11:56:06.264Z,4.20
2023-06-10T11:57:06.293Z,4.00
2023-06-10T11:58:06.255Z,4.20
2023-06-10T11:59:06.336Z,4.30
2023-06-10T12:00:06.417Z,5.00
2023-06-10T12:01:06.259Z,4.40
2023-06-10T12:02:06.229Z,4.60
2023-06-10T12:03:06.365Z,4.70
2023-06-10T12:04:06.313Z,4.70
2023-06-10T12:05:06.423Z,4.70
2023-06-10T12:06:06.291Z,4.40
2023-06-10T12:07:06.337Z,4.90
2023-06-10T12:08:06.242Z,4.70
2023-06-10T12:09:22.170Z,4.50
2023-06-10T12:10:22.581Z,4.50
2023-06-10T12:11:06.141Z,4.60
2023-06-10T12:12:06.129Z,4.70
2023-06-10T12:13:06.141Z,4.50
2023-06-10T12:14:06.115Z,4.50
2023-06-10T12:15:06.068Z,4.80
2023-06-10T12:16:06.122Z,4.70
2023-06-10T12:17:06.065Z,4.70
2023-06-10T12:18:06.097Z,4.60
2023-06-10T12:19:06.206Z,4.70
2023-06-10T12:20:06.183Z,4.70
2023-06-10T12:21:06.020Z,4.50
2023-06-10T12:22:06.021Z,4.80
2023-06-10T12:23:05.999Z,4.50
2023-06-10T12:24:06.082Z,4.70
2023-06-10T12:25:06.027Z,4.80
2023-06-10T12:26:05.992Z,4.90
2023-06-10T12:27:05.991Z,4.90
2023-06-10T12:28:05.951Z,4.70
2023-06-10T12:29:06.061Z,4.70
2023-06-10T12:30:06.177Z,4.50
2023-06-10T12:31:08.290Z,4.90
2023-06-10T12:32:06.186Z,4.80
2023-06-10T12:33:06.065Z,4.60
2023-06-10T12:34:05.909Z,4.60
2023-06-10T12:35:05.909Z,4.60
2023-06-10T12:36:05.964Z,4.60
2023-06-10T12:37:06.058Z,4.70
2023-06-10T12:38:05.898Z,4.60
2023-06-10T12:39:05.935Z,4.80
2023-06-10T12:40:05.941Z,4.70
2023-06-10T12:41:05.967Z,4.80
2023-06-10T12:42:05.860Z,4.90
2023-06-10T12:43:05.806Z,5.00
2023-06-10T12:44:05.849Z,4.80
2023-06-10T12:45:05.766Z,4.90
2023-06-10T12:46:05.915Z,5.20
2023-06-10T12:47:05.787Z,4.90
2023-06-10T12:48:05.964Z,5.00
2023-06-10T12:49:05.728Z,4.90
2023-06-10T12:50:05.833Z,4.90
2023-06-10T12:51:05.826Z,5.00
2023-06-10T12:52:05.762Z,5.10
2023-06-10T12:53:05.766Z,4.60
2023-06-10T12:54:05.712Z,4.90
2023-06-10T12:55:05.814Z,4.80
2023-06-10T12:56:05.784Z,4.80
2023-06-10T12:57:05.802Z,4.80
2023-06-10T12:58:05.886Z,5.20
2023-06-10T12:59:05.839Z,5.20
2023-06-10T13:00:05.999Z,5.60
2023-06-10T13:01:05.694Z,5.10
2023-06-10T13:02:05.717Z,5.10
2023-06-10T13:03:05.805Z,4.90
2023-06-10T13:04:05.792Z,5.40
2023-06-10T13:05:05.732Z,5.70
2023-06-10T13:06:05.689Z,5.30
2023-06-10T13:07:05.664Z,5.00
2023-06-10T13:08:05.748Z,5.40
2023-06-10T13:09:05.649Z,5.60
2023-06-10T13:10:05.659Z,5.70
2023-06-10T13:11:05.633Z,5.10
2023-06-10T13:12:05.622Z,5.30
2023-06-10T13:13:05.622Z,5.10
2023-06-10T13:14:05.671Z,5.10
2023-06-10T13:15:05.614Z,5.40
2023-06-10T13:16:05.667Z,5.20
2023-06-10T13:17:05.616Z,6.00
2023-06-10T13:18:05.615Z,6.10